Terminal Aerodrome Forecast
Issued by NWS

Home | Current Version | Previous Version | Text Only | Print | Product List | Glossary On
Versions: 1 2 3 4 5 6 7 8 9 10 11 12 13 14 15 16 17 18 19 20 21 22 23
000
FTUS42 KGSP 271120
TAFAND
TAF
KAND 271120Z 2712/2812 03003KT P6SM BKN028 OVC035
     FM271400 03005KT P6SM SCT035 BKN045
      TEMPO 2714/2718 FEW030 SCT045
     FM271800 32003KT P6SM BKN045
     FM272300 02003KT P6SM BKN045
     FM280300 05007KT P6SM BKN045=

USA.gov is the U.S. government's official web portal to all federal, state and local government web resources and services.